Time;durP1;ratioP1;P1;durP2;ratioP2;P2;SDS_P1;SDS_P2;PMS_P1;PMS_P2;Temp;Humidity;BMP_temperature;BMP_pressure;BME280_temperature;BME280_humidity;BME280_pressure;Samples;Min_cycle;Max_cycle;Signal;HPM_P1;HPM_P2
2021/04/24 00:01:43;;;;;;;5.10;4.20;;;;;;;6.38;50.49;99734.25;5107338;27;39687;-76
2021/04/24 00:04:11;;;;;;;6.60;4.33;;;;;;;6.37;51.36;99732.53;5089628;28;41038;-76
2021/04/24 00:06:38;;;;;;;6.77;4.00;;;;;;;6.35;51.41;99733.47;5105694;27;44000;-75
2021/04/24 00:09:06;;;;;;;7.60;4.30;;;;;;;6.30;51.00;99740.66;5106564;27;42042;-75
2021/04/24 00:11:34;;;;;;;5.83;3.70;;;;;;;6.19;51.03;99721.69;5107584;28;40992;-76
2021/04/24 00:14:02;;;;;;;5.70;4.00;;;;;;;6.23;50.34;99734.72;5091174;28;40662;-75
2021/04/24 00:16:30;;;;;;;6.33;3.93;;;;;;;6.18;50.66;99738.41;5107826;28;42768;-75
2021/04/24 00:18:57;;;;;;;5.73;3.60;;;;;;;6.17;51.11;99734.06;5107694;28;41077;-75
2021/04/24 00:21:25;;;;;;;3.90;3.43;;;;;;;6.13;51.16;99744.66;5143550;27;39710;-75
2021/04/24 00:23:52;;;;;;;4.73;3.57;;;;;;;6.10;50.63;99738.63;5111639;27;42334;-75
2021/04/24 00:26:19;;;;;;;5.57;3.70;;;;;;;6.05;50.46;99741.41;5111801;28;42545;-74
2021/04/24 00:28:46;;;;;;;3.63;3.20;;;;;;;6.01;50.16;99750.28;5110875;28;41917;-75
2021/04/24 00:31:13;;;;;;;4.03;3.67;;;;;;;5.91;50.02;99733.06;5128773;27;40326;-75
2021/04/24 00:33:41;;;;;;;5.53;3.30;;;;;;;5.92;50.45;99747.94;5111087;28;41693;-75
2021/04/24 00:36:14;;;;;;;5.27;3.73;;;;;;;5.82;51.57;99721.91;5112017;27;43315;-74
2021/04/24 00:38:42;;;;;;;4.40;3.00;;;;;;;5.82;52.26;99738.53;5110749;28;42227;-75
2021/04/24 00:41:10;;;;;;;8.43;5.40;;;;;;;5.78;52.28;99729.03;5112468;27;39715;-75
2021/04/24 00:43:37;;;;;;;6.47;3.87;;;;;;;5.74;52.11;99737.91;5094245;28;40658;-74
2021/04/24 00:46:09;;;;;;;5.80;3.57;;;;;;;5.63;52.43;99724.22;5112765;27;43503;-75
2021/04/24 00:48:36;;;;;;;5.93;3.60;;;;;;;5.67;51.87;99737.25;5112387;27;42147;-75
2021/04/24 00:51:04;;;;;;;3.53;3.23;;;;;;;5.64;51.69;99731.19;5110386;28;39506;-75
2021/04/24 00:53:31;;;;;;;5.80;4.43;;;;;;;5.60;51.64;99737.44;5111766;27;41592;-75
2021/04/24 00:55:59;;;;;;;6.00;3.90;;;;;;;5.58;51.82;99739.25;5110921;28;42737;-75
2021/04/24 00:58:27;;;;;;;4.83;3.70;;;;;;;5.53;51.75;99733.28;5111552;27;42934;-75
2021/04/24 01:00:55;;;;;;;4.53;3.60;;;;;;;5.43;51.65;99731.81;5112318;27;41457;-75
2021/04/24 01:03:22;;;;;;;6.30;3.77;;;;;;;5.43;51.67;99737.94;5112735;27;41265;-75
2021/04/24 01:05:49;;;;;;;5.57;3.83;;;;;;;5.35;52.02;99732.88;5111805;27;43397;-75
2021/04/24 01:08:18;;;;;;;5.60;3.77;;;;;;;5.19;52.19;99710.56;5111932;27;42282;-75
2021/04/24 01:10:45;;;;;;;5.03;3.03;;;;;;;5.26;52.08;99742.78;5111417;27;39930;-74
2021/04/24 01:13:16;;;;;;;4.77;3.50;;;;;;;5.20;51.81;99735.03;5112063;27;41627;-75
2021/04/24 01:15:44;;;;;;;5.17;4.07;;;;;;;5.18;52.35;99734.25;5111173;27;42478;-75
2021/04/24 01:18:12;;;;;;;3.40;3.00;;;;;;;5.14;52.39;99728.19;5112391;27;42337;-75
2021/04/24 01:20:40;;;;;;;4.30;3.67;;;;;;;5.11;52.62;99725.66;5093774;28;38687;-74
2021/04/24 01:23:09;;;;;;;4.67;3.53;;;;;;;5.09;54.04;99719.56;5109406;28;41646;-75
2021/04/24 01:25:38;;;;;;;5.53;3.83;;;;;;;5.07;53.89;99716.97;5109843;28;43486;-75
2021/04/24 01:28:07;;;;;;;5.70;4.00;;;;;;;4.78;53.62;99682.78;5111515;27;42197;-75
2021/04/24 01:30:37;;;;;;;5.90;3.87;;;;;;;5.00;53.35;99722.44;5093132;28;39582;-74
2021/04/24 01:33:07;;;;;;;6.47;4.40;;;;;;;4.96;53.40;99723.41;5110766;27;41614;-76
2021/04/24 01:35:34;;;;;;;5.80;3.97;;;;;;;4.93;53.46;99723.53;5111250;27;43465;-75
2021/04/24 01:38:02;;;;;;;5.30;3.90;;;;;;;4.88;53.48;99721.00;5093107;28;41049;-75
2021/04/24 01:40:31;;;;;;;4.70;3.67;;;;;;;4.86;53.24;99719.31;5109745;28;39406;-74
2021/04/24 01:42:58;;;;;;;4.87;3.03;;;;;;;4.83;53.18;99727.25;5112070;27;42379;-74
2021/04/24 01:45:26;;;;;;;4.20;3.30;;;;;;;4.79;53.20;99726.50;5110039;28;42756;-75
2021/04/24 01:47:54;;;;;;;4.27;3.30;;;;;;;4.73;53.33;99721.38;5109589;28;42965;-75
2021/04/24 01:50:24;;;;;;;6.67;3.70;;;;;;;4.71;53.33;99723.19;5111664;27;40624;-75
2021/04/24 01:52:53;;;;;;;4.57;3.57;;;;;;;4.67;53.76;99714.56;5092411;28;41595;-75
2021/04/24 01:55:22;;;;;;;5.03;3.80;;;;;;;4.63;53.94;99715.50;5112063;27;43601;-75
2021/04/24 01:57:52;;;;;;;5.77;4.20;;;;;;;4.60;53.96;99706.84;5111682;27;42415;-74
2021/04/24 02:00:24;;;;;;;5.30;3.43;;;;;;;4.42;54.40;99679.31;5111220;27;40346;-75
2021/04/24 02:02:52;;;;;;;5.17;3.00;;;;;;;4.51;54.04;99709.69;5109822;28;42878;-75
2021/04/24 02:05:21;;;;;;;5.87;3.80;;;;;;;4.48;53.94;99705.38;5110333;28;43551;-74
2021/04/24 02:07:59;;;;;;;4.50;3.80;;;;;;;4.42;54.10;99702.94;5108979;28;42192;-74
2021/04/24 02:10:29;;;;;;;6.17;4.47;;;;;;;4.41;55.01;99700.34;5110214;28;40524;-74
2021/04/24 02:12:58;;;;;;;4.93;3.87;;;;;;;4.38;55.09;99693.41;5110274;27;42337;-74
2021/04/24 02:15:25;;;;;;;7.53;4.17;;;;;;;4.35;54.72;99698.72;5111422;27;42672;-75
2021/04/24 02:17:52;;;;;;;5.70;4.13;;;;;;;4.33;55.34;99687.41;5143451;27;42901;-75
2021/04/24 02:20:20;;;;;;;6.40;3.73;;;;;;;4.30;54.88;99695.34;5111716;27;40565;-75
2021/04/24 02:22:47;;;;;;;5.03;3.40;;;;;;;4.27;54.94;99706.78;5110060;27;42258;-75
2021/04/24 02:25:17;;;;;;;5.47;4.10;;;;;;;4.24;54.93;99696.34;5111223;27;42727;-75
2021/04/24 02:27:44;;;;;;;5.03;3.97;;;;;;;4.21;54.82;99700.78;5110737;27;42053;-75
2021/04/24 02:30:16;;;;;;;4.70;3.60;;;;;;;4.14;54.81;99693.97;5110510;27;40672;-74
2021/04/24 02:32:44;;;;;;;4.33;3.63;;;;;;;4.12;54.70;99701.00;5109217;28;41627;-75
2021/04/24 02:35:14;;;;;;;7.73;3.87;;;;;;;4.05;54.59;99688.97;5110334;27;43461;-75
2021/04/24 02:37:41;;;;;;;5.00;3.93;;;;;;;4.01;54.42;99693.41;5108764;28;42192;-75
2021/04/24 02:40:11;;;;;;;5.10;3.53;;;;;;;3.96;54.85;99698.72;5110971;27;40915;-75
2021/04/24 02:42:39;;;;;;;5.83;4.13;;;;;;;3.93;55.29;99690.97;5108971;28;41705;-74
2021/04/24 02:45:08;;;;;;;5.10;3.50;;;;;;;3.83;55.14;99686.78;5108459;27;42814;-75
2021/04/24 02:47:37;;;;;;;5.43;3.10;;;;;;;3.86;55.14;99699.84;5108962;28;42434;-75
2021/04/24 02:50:07;;;;;;;4.97;3.50;;;;;;;3.83;55.08;99699.91;5109321;28;40079;-74
2021/04/24 02:52:34;;;;;;;4.90;3.53;;;;;;;3.79;54.86;99686.91;5109926;27;41465;-74
2021/04/24 02:55:02;;;;;;;4.57;3.27;;;;;;;3.71;54.99;99679.22;5109575;28;41843;-74
2021/04/24 02:57:29;;;;;;;6.63;4.67;;;;;;;3.76;55.06;99686.97;5110425;27;42015;-74
2021/04/24 02:59:56;;;;;;;6.30;3.67;;;;;;;3.74;55.41;99692.25;5109281;28;39545;-75
2021/04/24 03:02:23;;;;;;;5.53;3.20;;;;;;;3.72;55.29;99696.66;5110246;27;41681;-75
2021/04/24 03:04:51;;;;;;;8.10;3.70;;;;;;;3.70;55.36;99698.47;5108800;28;43055;-74
2021/04/24 03:07:19;;;;;;;4.00;2.80;;;;;;;3.61;55.38;99682.91;5110031;27;42589;-76
2021/04/24 03:09:46;;;;;;;5.10;3.97;;;;;;;3.68;55.98;99689.78;5091502;28;38907;-75
2021/04/24 03:12:13;;;;;;;3.50;3.10;;;;;;;3.65;56.17;99684.59;5108859;28;41604;-74
2021/04/24 03:14:40;;;;;;;4.90;3.80;;;;;;;3.69;56.69;99695.88;5091922;28;42844;-75
2021/04/24 03:17:07;;;;;;;3.90;3.50;;;;;;;3.66;56.68;99702.03;5110017;27;41280;-75
2021/04/24 03:19:34;;;;;;;7.37;4.00;;;;;;;3.63;56.47;99702.09;5110180;27;40370;-75
2021/04/24 03:22:02;;;;;;;7.37;4.40;;;;;;;3.60;56.31;99699.53;5108184;28;41605;-75
2021/04/24 03:24:29;;;;;;;5.00;3.40;;;;;;;3.57;56.86;99691.75;5108395;28;42760;-75
2021/04/24 03:26:56;;;;;;;4.37;3.67;;;;;;;3.56;56.61;99695.28;5109439;27;41912;-75
2021/04/24 03:29:24;;;;;;;4.70;4.17;;;;;;;3.44;57.01;99679.81;5108736;28;41716;-75
2021/04/24 03:31:51;;;;;;;5.27;3.73;;;;;;;3.53;56.95;99688.34;5109580;27;41562;-74
2021/04/24 03:34:18;;;;;;;6.80;4.07;;;;;;;3.51;56.88;99692.72;5110319;27;41611;-75
2021/04/24 03:36:45;;;;;;;7.23;3.77;;;;;;;3.47;56.88;99700.69;5108241;28;41448;-74
2021/04/24 03:39:13;;;;;;;5.27;3.60;;;;;;;3.32;56.75;99669.59;5107818;28;38994;-74
2021/04/24 03:41:41;;;;;;;4.20;3.23;;;;;;;3.42;57.05;99684.22;5108493;27;41703;-75
2021/04/24 03:44:08;;;;;;;4.77;3.27;;;;;;;3.39;56.88;99689.50;5108426;28;41956;-75
2021/04/24 03:46:35;;;;;;;4.47;3.50;;;;;;;3.36;57.04;99692.19;5107874;28;41429;-75
2021/04/24 03:49:02;;;;;;;3.60;3.30;;;;;;;3.28;57.15;99683.63;5109863;27;39666;-74
2021/04/24 03:51:29;;;;;;;3.80;3.40;;;;;;;3.29;56.99;99686.22;5089883;28;41719;-75
2021/04/24 03:53:56;;;;;;;4.73;3.27;;;;;;;3.27;56.93;99694.97;5142575;27;42668;-75
2021/04/24 03:56:24;;;;;;;3.67;3.37;;;;;;;3.18;57.25;99689.03;5108596;27;43048;-75
2021/04/24 03:58:51;;;;;;;4.03;3.63;;;;;;;3.22;57.99;99689.81;5109406;27;40066;-74
2021/04/24 04:01:18;;;;;;;4.53;3.57;;;;;;;3.23;59.02;99688.94;5108643;28;40866;-74
2021/04/24 04:03:46;;;;;;;6.03;3.67;;;;;;;3.19;58.50;99685.53;5108669;27;43563;-74
2021/04/24 04:06:13;;;;;;;5.17;3.67;;;;;;;3.22;58.48;99700.28;5109233;27;42963;-74
2021/04/24 04:08:40;;;;;;;5.67;4.00;;;;;;;3.21;58.03;99707.28;5109081;27;40890;-75
2021/04/24 04:11:07;;;;;;;3.60;3.20;;;;;;;3.20;58.14;99708.22;5108859;27;42300;-75
2021/04/24 04:13:35;;;;;;;8.40;4.07;;;;;;;3.19;58.19;99706.47;5109277;27;43214;-74
2021/04/24 04:16:02;;;;;;;5.10;3.80;;;;;;;3.01;57.97;99688.50;5141697;27;42013;-74
2021/04/24 04:18:34;;;;;;;4.23;3.47;;;;;;;3.17;57.95;99717.88;5091391;28;39386;-75
2021/04/24 04:21:03;;;;;;;5.73;3.93;;;;;;;3.16;57.94;99721.38;5108647;27;41805;-75
2021/04/24 04:23:30;;;;;;;4.70;3.53;;;;;;;3.12;58.10;99717.94;5108436;27;42431;-74
2021/04/24 04:25:58;;;;;;;5.20;3.87;;;;;;;3.10;58.08;99714.47;5106891;28;40926;-75
2021/04/24 04:28:26;;;;;;;6.33;4.63;;;;;;;3.04;57.59;99722.47;5124472;27;39802;-76
2021/04/24 04:30:56;;;;;;;4.33;3.80;;;;;;;3.07;57.81;99732.88;5106373;28;41781;-75
2021/04/24 04:33:23;;;;;;;4.43;3.30;;;;;;;3.06;57.64;99725.91;5107822;28;41761;-75
2021/04/24 04:35:51;;;;;;;6.63;3.70;;;;;;;3.06;57.50;99728.53;5107961;27;42191;-75
2021/04/24 04:38:18;;;;;;;5.00;3.43;;;;;;;3.06;57.51;99728.53;5090565;28;38879;-75
2021/04/24 04:40:46;;;;;;;4.90;3.80;;;;;;;3.05;57.70;99721.56;5108822;27;41623;-74
2021/04/24 04:43:14;;;;;;;3.50;3.20;;;;;;;3.08;57.51;99724.13;5109128;27;42394;-74
2021/04/24 04:45:42;;;;;;;4.97;3.87;;;;;;;3.12;57.46;99723.16;5108623;27;42947;-75
2021/04/24 04:48:10;;;;;;;3.90;3.10;;;;;;;3.15;57.54;99725.75;5107595;28;39952;-75
2021/04/24 04:50:38;;;;;;;3.77;3.10;;;;;;;3.21;57.36;99730.84;5107547;27;42102;-75
2021/04/24 04:53:06;;;;;;;4.43;3.30;;;;;;;3.18;57.31;99707.38;5090494;28;41270;-74
2021/04/24 04:55:33;;;;;;;5.80;3.70;;;;;;;3.34;57.69;99709.69;5090490;28;42067;-74
2021/04/24 04:58:01;;;;;;;4.60;3.33;;;;;;;3.51;57.35;99718.06;5107273;28;39676;-75
2021/04/24 05:00:28;;;;;;;4.20;3.07;;;;;;;3.57;57.44;99717.94;5109462;27;41432;-75
2021/04/24 05:02:56;;;;;;;8.03;4.40;;;;;;;3.67;57.25;99714.25;5108922;27;42725;-74
2021/04/24 05:05:25;;;;;;;5.27;3.83;;;;;;;3.82;57.35;99721.78;5107512;28;42993;-74
2021/04/24 05:07:52;;;;;;;7.47;3.77;;;;;;;3.93;57.44;99716.31;5108470;27;40945;-74
2021/04/24 05:10:21;;;;;;;4.87;3.80;;;;;;;3.99;57.27;99716.16;5094297;28;40645;-74
2021/04/24 05:12:49;;;;;;;4.53;3.40;;;;;;;4.05;57.01;99708.16;5109874;28;42703;-75
2021/04/24 05:15:17;;;;;;;4.87;3.57;;;;;;;4.14;56.99;99705.34;5110951;28;42024;-74
2021/04/24 05:17:44;;;;;;;6.30;3.70;;;;;;;4.37;56.73;99733.63;5112045;27;40118;-73
2021/04/24 05:20:12;;;;;;;6.27;4.30;;;;;;;4.46;56.71;99728.16;5109876;28;42808;-75
2021/04/24 05:22:40;;;;;;;6.17;4.03;;;;;;;4.58;56.65;99727.88;5109504;28;43447;-75
2021/04/24 05:25:08;;;;;;;5.20;3.67;;;;;;;4.67;56.51;99735.53;5110012;28;41947;-75
2021/04/24 05:27:36;;;;;;;6.07;4.20;;;;;;;4.76;56.97;99736.19;5110200;28;39700;-75
2021/04/24 05:30:05;;;;;;;5.13;3.83;;;;;;;4.88;57.03;99738.50;5111581;27;41632;-75
2021/04/24 05:32:32;;;;;;;6.13;4.80;;;;;;;5.01;56.56;99737.31;5111320;27;42731;-75
2021/04/24 05:34:59;;;;;;;4.70;3.83;;;;;;;5.18;56.25;99744.75;5112029;27;41937;-74
2021/04/24 05:37:26;;;;;;;6.83;4.77;;;;;;;5.33;56.13;99744.31;5092577;28;39379;-75
2021/04/24 05:39:56;;;;;;;7.70;4.87;;;;;;;5.48;55.90;99743.03;5111592;27;42125;-74
2021/04/24 05:42:23;;;;;;;7.57;5.90;;;;;;;5.64;56.29;99744.34;5110328;28;43056;-74
2021/04/24 05:44:50;;;;;;;9.37;5.87;;;;;;;5.83;55.96;99745.53;5112089;27;42211;-75
2021/04/24 05:47:17;;;;;;;8.60;5.77;;;;;;;6.05;55.86;99741.41;5110537;28;39912;-74
2021/04/24 05:49:44;;;;;;;8.63;5.67;;;;;;;6.27;55.47;99740.75;5111840;27;41124;-75
2021/04/24 05:52:11;;;;;;;10.37;5.83;;;;;;;6.44;55.46;99741.06;5109607;28;42412;-74
2021/04/24 05:54:39;;;;;;;9.60;5.40;;;;;;;6.54;55.38;99729.38;5110969;27;42943;-74
2021/04/24 05:57:07;;;;;;;9.43;6.17;;;;;;;6.62;55.62;99722.06;5111480;27;41659;-74
2021/04/24 05:59:35;;;;;;;8.87;5.70;;;;;;;6.79;55.37;99735.56;5111050;27;41799;-74
2021/04/24 06:02:02;;;;;;;6.30;4.77;;;;;;;6.95;55.15;99740.28;5109606;28;43416;-74
2021/04/24 06:04:29;;;;;;;7.97;6.63;;;;;;;7.13;54.84;99745.78;5111639;27;42936;-75
2021/04/24 06:06:56;;;;;;;7.40;5.20;;;;;;;7.34;54.47;99733.66;5111029;27;40668;-74
2021/04/24 06:09:23;;;;;;;10.20;5.73;;;;;;;7.66;54.24;99740.41;5093649;28;40937;-75
2021/04/24 06:11:51;;;;;;;9.77;4.97;;;;;;;8.05;53.52;99743.31;5092152;28;42465;-75
2021/04/24 06:14:19;;;;;;;5.93;4.53;;;;;;;8.54;52.43;99757.28;5090010;28;42556;-75
2021/04/24 06:16:46;;;;;;;6.07;4.67;;;;;;;8.74;52.22;99754.72;5108988;27;40310;-75
2021/04/24 06:19:13;;;;;;;8.60;5.20;;;;;;;8.83;52.09;99759.59;5107574;28;41458;-74
2021/04/24 06:21:40;;;;;;;9.27;5.50;;;;;;;8.90;51.55;99766.34;5105911;27;42626;-75
2021/04/24 06:24:08;;;;;;;7.63;5.20;;;;;;;9.08;51.52;99763.88;5106085;27;42309;-75
2021/04/24 06:26:35;;;;;;;9.53;5.93;;;;;;;9.26;51.01;99771.03;5106289;27;39991;-76
2021/04/24 06:29:03;;;;;;;7.53;5.40;;;;;;;9.47;50.96;99770.09;5105465;27;41513;-75
2021/04/24 06:31:31;;;;;;;8.00;5.03;;;;;;;9.69;50.52;99762.09;5106142;27;42409;-75
2021/04/24 06:33:58;;;;;;;8.80;5.33;;;;;;;10.06;49.61;99769.22;5107893;27;42518;-75
2021/04/24 06:36:26;;;;;;;7.47;5.03;;;;;;;10.65;48.27;99778.81;5105858;27;39491;-75
2021/04/24 06:38:54;;;;;;;8.00;5.67;;;;;;;10.87;47.82;99776.88;5088436;28;41114;-75
2021/04/24 06:41:21;;;;;;;6.27;4.77;;;;;;;10.93;48.24;99779.22;5102575;28;42687;-75
2021/04/24 06:43:48;;;;;;;14.43;5.83;;;;;;;10.93;47.88;99781.00;5088031;28;41308;-76
2021/04/24 06:46:15;;;;;;;7.03;4.97;;;;;;;10.94;47.73;99778.28;5106907;27;40918;-76
2021/04/24 06:48:44;;;;;;;8.70;5.33;;;;;;;10.82;47.97;99762.13;5104861;28;41268;-75
2021/04/24 06:51:11;;;;;;;11.33;5.47;;;;;;;10.97;48.51;99772.84;5103733;28;41470;-75
2021/04/24 06:53:40;;;;;;;12.63;5.70;;;;;;;11.10;48.07;99767.78;5106505;27;42054;-75
2021/04/24 06:56:07;;;;;;;7.57;5.30;;;;;;;11.41;47.24;99777.69;5106181;27;39881;-75
2021/04/24 06:58:34;;;;;;;8.87;5.93;;;;;;;11.84;46.38;99781.66;5105527;27;41968;-75
2021/04/24 07:01:02;;;;;;;9.23;5.73;;;;;;;11.97;46.38;99787.16;5105011;28;43349;-75
2021/04/24 07:03:29;;;;;;;8.37;5.57;;;;;;;12.17;45.69;99789.59;5107228;27;42851;-75
2021/04/24 07:05:57;;;;;;;6.87;5.37;;;;;;;12.37;45.50;99778.72;5087044;28;40948;-74
2021/04/24 07:08:24;;;;;;;6.40;5.30;;;;;;;12.55;45.41;99791.03;5106611;27;42146;-75
2021/04/24 07:10:51;;;;;;;7.07;4.97;;;;;;;12.76;44.74;99798.72;5105234;27;42104;-75
2021/04/24 07:13:18;;;;;;;6.83;5.23;;;;;;;13.16;44.73;99792.88;5105083;28;41645;-75
2021/04/24 07:15:46;;;;;;;7.60;5.20;;;;;;;14.16;42.34;99801.06;5103581;28;39814;-75
2021/04/24 07:18:13;;;;;;;7.57;5.30;;;;;;;15.37;40.68;99803.81;5105594;28;41674;-76
2021/04/24 07:20:41;;;;;;;13.73;8.97;;;;;;;16.14;37.96;99810.16;5105811;27;43045;-75
2021/04/24 07:23:09;;;;;;;7.60;5.37;;;;;;;16.63;37.85;99812.88;5104877;28;42597;-76
2021/04/24 07:25:37;;;;;;;6.80;5.17;;;;;;;16.77;37.97;99818.09;5104599;28;40269;-75
2021/04/24 07:28:05;;;;;;;7.87;5.00;;;;;;;16.58;36.91;99825.69;5105849;27;42036;-75
2021/04/24 07:30:34;;;;;;;8.00;5.10;;;;;;;16.62;36.85;99820.97;5102711;27;41962;-75
2021/04/24 07:33:01;;;;;;;8.67;4.63;;;;;;;17.01;36.10;99833.31;5104378;28;42290;-75
2021/04/24 07:35:28;;;;;;;9.57;5.37;;;;;;;17.71;36.05;99826.25;5105615;27;40502;-75
2021/04/24 07:37:55;;;;;;;8.03;5.00;;;;;;;18.47;33.60;99836.34;5106485;27;41366;-75
2021/04/24 07:40:24;;;;;;;11.27;5.23;;;;;;;19.46;32.31;99839.00;5103599;28;43215;-75
2021/04/24 07:42:51;;;;;;;10.50;5.47;;;;;;;20.47;31.46;99835.78;5104015;28;42150;-75
2021/04/24 07:45:18;;;;;;;8.43;5.03;;;;;;;21.27;29.97;99846.53;5105713;27;39755;-75
2021/04/24 07:47:45;;;;;;;7.80;4.90;;;;;;;21.36;30.14;99824.16;5104962;28;40632;-72
2021/04/24 07:50:14;;;;;;;6.97;4.93;;;;;;;21.58;29.56;99845.44;5103642;28;43200;-74
2021/04/24 07:52:41;;;;;;;7.30;4.93;;;;;;;22.40;29.32;99829.56;5101031;28;42013;-73
2021/04/24 07:55:08;;;;;;;6.13;4.80;;;;;;;23.68;27.51;99829.56;5106202;27;39639;-73
2021/04/24 07:57:36;;;;;;;6.50;4.83;;;;;;;24.66;26.15;99848.22;5104334;27;42043;-76
2021/04/24 08:00:05;;;;;;;6.20;4.53;;;;;;;25.01;26.03;99849.91;5104601;28;43569;-73
2021/04/24 08:02:34;;;;;;;6.40;4.60;;;;;;;25.03;25.76;99845.19;5087138;28;41232;-73
2021/04/24 08:05:01;;;;;;;7.70;4.73;;;;;;;25.61;24.28;99855.16;5103418;28;40127;-73
2021/04/24 08:07:28;;;;;;;6.00;4.10;;;;;;;26.34;23.20;99860.59;5105081;27;41339;-73
2021/04/24 08:09:55;;;;;;;6.43;4.27;;;;;;;26.66;23.04;99857.84;5102809;27;42505;-73
2021/04/24 08:12:22;;;;;;;4.97;3.93;;;;;;;26.71;22.42;99860.00;5103969;27;41882;-73
2021/04/24 08:14:50;;;;;;;5.60;4.20;;;;;;;26.40;22.93;99847.19;5102956;28;40697;-74
2021/04/24 08:17:17;;;;;;;15.47;12.13;;;;;;;26.27;23.50;99852.28;5103891;28;41847;-73
2021/04/24 08:19:45;;;;;;;8.70;4.87;;;;;;;26.42;23.46;99845.16;5103932;28;41769;-75
2021/04/24 08:22:12;;;;;;;7.43;5.00;;;;;;;27.33;22.27;99855.50;5104401;28;41659;-74
2021/04/24 08:24:39;;;;;;;9.90;4.73;;;;;;;28.17;21.38;99848.28;5105802;28;41024;-74
2021/04/24 08:27:06;;;;;;;7.77;5.20;;;;;;;29.03;19.33;99860.50;5108395;27;41671;-74
2021/04/24 08:29:34;;;;;;;6.23;5.20;;;;;;;29.77;18.92;99852.97;5107731;28;41655;-74
2021/04/24 08:32:04;;;;;;;7.00;5.23;;;;;;;30.48;18.70;99851.91;5108147;27;42925;-74
2021/04/24 08:34:31;;;;;;;7.27;5.37;;;;;;;30.91;18.67;99852.59;5108539;27;40531;-74
2021/04/24 08:36:59;;;;;;;6.40;4.63;;;;;;;30.91;18.24;99849.88;5108850;27;41742;-74
2021/04/24 08:39:26;;;;;;;6.33;4.70;;;;;;;31.51;18.38;99840.03;5107325;28;41699;-74
2021/04/24 08:41:53;;;;;;;6.20;4.40;;;;;;;32.17;16.22;99867.53;5108592;27;42108;-74
2021/04/24 08:44:20;;;;;;;7.37;5.23;;;;;;;32.62;16.07;99856.78;5111948;27;39504;-75
2021/04/24 08:46:49;;;;;;;4.93;4.43;;;;;;;32.81;16.17;99864.13;5111511;27;42368;-74
2021/04/24 08:49:18;;;;;;;5.57;4.97;;;;;;;33.16;15.49;99859.16;5094465;28;41874;-74
2021/04/24 08:51:45;;;;;;;5.57;5.07;;;;;;;33.63;14.93;99866.13;5111851;27;42906;-74
2021/04/24 08:54:13;;;;;;;6.93;4.77;;;;;;;34.17;14.05;99872.97;5111580;28;39229;-75
2021/04/24 08:56:40;;;;;;;5.97;4.13;;;;;;;34.90;13.63;99867.63;5110676;28;41643;-74
2021/04/24 08:59:08;;;;;;;5.40;4.40;;;;;;;34.94;14.06;99857.88;5110994;28;42687;-74
2021/04/24 09:01:36;;;;;;;6.37;4.63;;;;;;;34.52;14.22;99859.53;5111925;28;42611;-74
2021/04/24 09:04:03;;;;;;;6.57;3.97;;;;;;;34.27;14.73;99845.81;5111406;28;38920;-74
2021/04/24 09:06:33;;;;;;;5.07;4.37;;;;;;;34.19;14.43;99854.34;5093639;28;41126;-75
2021/04/24 09:09:02;;;;;;;6.20;4.33;;;;;;;33.59;14.54;99842.06;5110672;28;43159;-75
2021/04/24 09:11:38;;;;;;;5.00;4.07;;;;;;;32.96;15.31;99826.31;5092626;28;41148;-72
2021/04/24 09:14:07;;;;;;;5.63;5.03;;;;;;;32.40;14.95;99832.31;5104381;28;40841;-73
2021/04/24 09:16:36;;;;;;;7.03;4.80;;;;;;;32.19;15.26;99829.81;5110838;27;41694;-73
2021/04/24 09:19:30;;;;;;;6.73;4.97;;;;;;;32.56;15.31;99830.19;5108282;27;43517;-73
2021/04/24 09:22:18;;;;;;;8.40;5.50;;;;;;;33.21;14.58;99829.16;5110857;27;41978;-73
2021/04/24 09:24:47;;;;;;;8.03;5.40;;;;;;;33.73;13.62;99832.69;5110007;27;40463;-72
2021/04/24 09:27:15;;;;;;;5.50;5.00;;;;;;;34.58;12.61;99853.16;5110931;27;42431;-73
2021/04/24 09:29:43;;;;;;;7.10;4.60;;;;;;;35.06;13.02;99844.16;5108675;28;42653;-73
2021/04/24 09:32:15;;;;;;;5.77;5.00;;;;;;;35.22;12.39;99846.28;5108911;28;42441;-73
2021/04/24 09:34:45;;;;;;;5.37;4.17;;;;;;;35.39;13.34;99827.22;5143540;27;39948;-72
2021/04/24 09:37:18;;;;;;;7.93;5.47;;;;;;;35.58;11.95;99835.22;5110397;27;41984;-73
2021/04/24 09:39:49;;;;;;;5.70;5.10;;;;;;;35.34;12.52;99829.84;5110448;27;42531;-73
2021/04/24 09:42:37;;;;;;;8.87;5.63;;;;;;;35.96;12.67;99821.09;5110529;27;42845;-72
2021/04/24 09:45:24;;;;;;;6.70;5.47;;;;;;;35.82;12.41;99821.53;5106839;28;40020;-73
2021/04/24 09:47:52;;;;;;;7.97;5.30;;;;;;;35.73;12.22;99817.41;5108102;28;41730;-73
2021/04/24 09:50:22;;;;;;;5.97;5.23;;;;;;;35.61;12.34;99817.34;5111463;27;42642;-73
2021/04/24 09:52:50;;;;;;;5.97;5.40;;;;;;;35.87;12.67;99807.84;5109776;27;43102;-73
2021/04/24 09:55:35;;;;;;;7.53;5.03;;;;;;;36.83;12.33;99806.59;5109725;27;40459;-73
2021/04/24 09:58:03;;;;;;;10.68;8.18;;;;;;;37.93;11.53;99815.41;5144014;27;42361;-73
2021/04/24 10:00:31;;;;;;;6.15;5.13;;;;;;;38.31;10.90;99819.34;5110538;27;42593;-73
2021/04/24 10:02:58;;;;;;;7.18;6.22;;;;;;;37.68;11.29;99803.91;5109817;28;41045;-72
2021/04/24 10:05:26;;;;;;;7.83;5.83;;;;;;;36.49;11.92;99783.44;5109466;28;40823;-73
2021/04/24 10:07:56;;;;;;;6.73;4.73;;;;;;;35.14;12.55;99786.84;5109997;27;42552;-73
2021/04/24 10:10:40;;;;;;;7.40;5.17;;;;;;;34.69;13.13;99780.00;5110467;27;43171;-73
2021/04/24 10:13:09;;;;;;;5.33;4.83;;;;;;;35.14;13.76;99775.00;5108480;28;41212;-73
2021/04/24 10:15:37;;;;;;;7.23;4.90;;;;;;;35.29;12.67;99776.28;5107924;28;39957;-73
2021/04/24 10:18:05;;;;;;;6.03;5.43;;;;;;;35.12;13.51;99761.44;5108762;28;41580;-73
2021/04/24 10:20:33;;;;;;;9.13;5.33;;;;;;;34.73;13.33;99767.47;5088028;28;42174;-73
2021/04/24 10:23:04;;;;;;;6.83;5.23;;;;;;;34.91;12.98;99751.78;5088698;28;42409;-74
2021/04/24 10:25:31;;;;;;;5.33;4.80;;;;;;;35.32;12.84;99761.22;5090510;28;40226;-73
2021/04/24 10:27:59;;;;;;;6.20;4.85;;;;;;;35.97;13.68;99752.97;5108887;28;41155;-74
2021/04/24 10:30:27;;;;;;;5.78;4.88;;;;;;;37.09;12.86;99738.91;5091346;28;42111;-73
2021/04/24 10:32:55;;;;;;;5.60;4.78;;;;;;;38.31;11.09;99770.38;5108710;28;41834;-74
2021/04/24 10:35:25;;;;;;;6.63;5.80;;;;;;;39.26;10.54;99766.34;5090813;28;39048;-74
2021/04/24 10:37:53;;;;;;;7.72;6.38;;;;;;;39.83;10.41;99765.78;5109693;27;41809;-73
2021/04/24 10:40:22;;;;;;;6.22;5.38;;;;;;;40.18;9.88;99757.75;5107821;28;43171;-73
2021/04/24 10:42:51;;;;;;;6.30;5.70;;;;;;;39.99;10.17;99758.47;5110182;27;42006;-73
2021/04/24 10:45:28;;;;;;;6.20;5.32;;;;;;;39.41;11.16;99747.13;5107741;28;40659;-73
2021/04/24 10:47:56;;;;;;;6.50;5.15;;;;;;;39.34;10.90;99751.16;5109847;27;41737;-73
2021/04/24 10:50:25;;;;;;;6.95;5.03;;;;;;;39.68;10.72;99740.72;5107824;27;42736;-73
2021/04/24 10:53:19;;;;;;;8.10;5.45;;;;;;;39.26;10.58;99744.19;5108955;27;42912;-74
2021/04/24 10:55:48;;;;;;;7.50;5.53;;;;;;;38.59;10.79;99744.47;5109368;27;41437;-73
2021/04/24 10:58:16;;;;;;;5.50;5.00;;;;;;;38.30;12.04;99729.13;5109918;27;41306;-74
2021/04/24 11:01:03;;;;;;;6.25;4.70;;;;;;;38.66;11.38;99731.28;5102762;27;42822;-74
2021/04/24 11:03:42;;;;;;;7.28;5.13;;;;;;;38.77;10.85;99744.16;5088713;28;42151;-75
2021/04/24 11:06:11;;;;;;;5.85;5.35;;;;;;;38.92;10.55;99740.75;5089319;28;40067;-75
2021/04/24 11:08:39;;;;;;;8.05;6.13;;;;;;;39.02;10.70;99737.28;5096375;28;41386;-75
2021/04/24 11:11:10;;;;;;;6.25;5.65;;;;;;;39.05;10.33;99725.69;5108913;27;43462;-74
2021/04/24 11:13:41;;;;;;;5.83;5.03;;;;;;;39.29;10.85;99729.81;5108373;27;41901;-74
2021/04/24 11:16:10;;;;;;;7.47;5.37;;;;;;;39.93;10.87;99720.69;5109595;27;40400;-75
2021/04/24 11:18:39;;;;;;;6.30;5.67;;;;;;;40.34;10.10;99716.25;5108803;27;42460;-74
2021/04/24 11:21:07;;;;;;;5.83;5.00;;;;;;;40.21;10.14;99723.91;5108233;28;42872;-74
2021/04/24 11:23:49;;;;;;;5.53;4.90;;;;;;;39.64;9.51;99722.94;5108020;28;41870;-74
2021/04/24 11:26:20;;;;;;;6.17;5.20;;;;;;;38.37;11.22;99713.16;5108113;28;38957;-74
2021/04/24 11:29:09;;;;;;;5.60;4.47;;;;;;;37.20;11.13;99697.44;5109442;27;41358;-73
2021/04/24 11:31:57;;;;;;;5.83;4.23;;;;;;;37.72;11.48;99694.44;5109101;27;42259;-74
2021/04/24 11:34:28;;;;;;;4.47;3.97;;;;;;;38.38;10.67;99700.97;5107882;28;42313;-74
2021/04/24 11:37:27;;;;;;;5.30;4.13;;;;;;;38.59;10.46;99700.16;5108612;28;40707;-74
2021/04/24 11:40:24;;;;;;;5.17;4.00;;;;;;;39.05;9.95;99703.50;5074217;28;41435;-74
2021/04/24 11:43:07;;;;;;;5.57;4.03;;;;;;;39.15;9.46;99670.34;5109592;27;43409;-74
2021/04/24 11:46:04;;;;;;;4.20;3.77;;;;;;;39.73;9.41;99688.88;5108153;27;42555;-74
2021/04/24 11:49:00;;;;;;;7.35;4.28;;;;;;;40.58;9.45;99700.81;5108796;27;40773;-74